createdAt,value
2022-08-28T00:01:47.129Z,18.38
2022-08-28T00:03:47.092Z,18.4
2022-08-28T00:05:47.102Z,18.38
2022-08-28T00:08:40.968Z,18.19
2022-08-28T00:10:40.971Z,18.28
2022-08-28T00:12:41.021Z,18.35
2022-08-28T00:14:40.993Z,18.35
2022-08-28T00:16:40.964Z,18.22
2022-08-28T00:18:40.968Z,18.2
2022-08-28T00:20:40.971Z,18.26
2022-08-28T00:22:40.974Z,18.21
2022-08-28T00:24:06.006Z,18.2
2022-08-28T00:26:05.988Z,18.22
2022-08-28T00:28:08.703Z,17.34
2022-08-28T00:30:06.025Z,17.35
2022-08-28T00:32:05.985Z,17.61
2022-08-28T00:34:05.983Z,17.59
2022-08-28T00:36:06.032Z,17.6
2022-08-28T00:39:33.938Z,17.75
2022-08-28T00:41:33.965Z,17.38
2022-08-28T00:43:33.927Z,17.53
2022-08-28T00:45:39.741Z,17.66
2022-08-28T00:47:33.967Z,17.75
2022-08-28T00:49:33.916Z,17.76
2022-08-28T00:51:33.952Z,17.79
2022-08-28T00:54:58.464Z,17.66
2022-08-28T00:56:50.193Z,17.54
2022-08-28T00:58:50.168Z,17.52
2022-08-28T01:00:50.215Z,17.61
2022-08-28T01:02:50.229Z,17.66
2022-08-28T01:04:50.186Z,17.69
2022-08-28T01:06:50.158Z,17.6
2022-08-28T01:10:17.953Z,17.52
2022-08-28T01:12:17.974Z,17.53
2022-08-28T01:14:17.946Z,17.5
2022-08-28T01:16:18.017Z,17.49
2022-08-28T01:18:17.969Z,17.5
2022-08-28T01:20:17.946Z,17.39
2022-08-28T01:22:17.944Z,17.32
2022-08-28T01:24:33.917Z,17.38
2022-08-28T01:26:33.888Z,17.32
2022-08-28T01:28:33.879Z,17.34
2022-08-28T01:30:33.891Z,17.27
2022-08-28T01:32:33.920Z,17.16
2022-08-28T01:34:33.876Z,17.13
2022-08-28T01:36:33.873Z,17.23
2022-08-28T01:38:33.867Z,17.26
2022-08-28T01:40:16.852Z,17.26
2022-08-28T01:42:16.830Z,17.33
2022-08-28T01:44:17.850Z,17.3
2022-08-28T01:46:16.861Z,17.27
2022-08-28T01:48:16.775Z,17.2
2022-08-28T01:50:16.846Z,17.13
2022-08-28T01:52:16.784Z,17.17
2022-08-28T01:55:14.009Z,17.16
2022-08-28T01:57:13.961Z,17.14
2022-08-28T01:59:13.996Z,17.09
2022-08-28T02:01:14.020Z,17.07
2022-08-28T02:03:13.944Z,17.05
2022-08-28T02:05:14.011Z,16.96
2022-08-28T02:07:13.945Z,17
2022-08-28T02:10:49.421Z,16.72
2022-08-28T02:12:49.381Z,16.8
2022-08-28T02:14:49.382Z,16.85
2022-08-28T02:16:49.396Z,16.85
2022-08-28T02:18:49.377Z,16.74
2022-08-28T02:20:49.417Z,16.87
2022-08-28T02:22:49.376Z,16.84
2022-08-28T02:25:20.344Z,16.73
2022-08-28T02:27:20.405Z,16.68
2022-08-28T02:29:20.334Z,16.71
2022-08-28T02:31:20.422Z,16.81
2022-08-28T02:33:20.353Z,16.73
2022-08-28T02:35:20.323Z,16.68
2022-08-28T02:37:20.354Z,16.64
2022-08-28T02:40:29.400Z,16.57
2022-08-28T02:42:29.378Z,16.46
2022-08-28T02:44:29.378Z,16.59
2022-08-28T02:46:29.466Z,16.54
2022-08-28T02:48:29.429Z,16.58
2022-08-28T02:50:29.371Z,16.57
2022-08-28T02:52:29.385Z,16.5
2022-08-28T02:55:52.463Z,16.45
2022-08-28T02:57:52.509Z,16.48
2022-08-28T02:59:52.465Z,16.47
2022-08-28T03:01:52.541Z,16.44
2022-08-28T03:03:52.497Z,16.5
2022-08-28T03:05:52.467Z,16.46
2022-08-28T03:07:52.479Z,16.45
2022-08-28T03:11:36.311Z,16.42
2022-08-28T03:13:36.360Z,16.44
2022-08-28T03:15:36.311Z,16.43
2022-08-28T03:17:36.321Z,16.38
2022-08-28T03:19:36.305Z,16.41
2022-08-28T03:21:36.356Z,16.38
2022-08-28T03:23:36.334Z,16.39
2022-08-28T03:26:46.938Z,16.24
2022-08-28T03:28:46.873Z,16.36
2022-08-28T03:30:46.956Z,16.36
2022-08-28T03:32:46.888Z,16.31
2022-08-28T03:34:46.877Z,16.31
2022-08-28T03:36:46.911Z,16.28
2022-08-28T03:38:46.891Z,16.28
2022-08-28T03:41:06.435Z,16.38
2022-08-28T03:43:06.826Z,16.4
2022-08-28T03:45:06.476Z,16.34
2022-08-28T03:47:06.429Z,16.3
2022-08-28T03:49:06.466Z,16.26
2022-08-28T03:51:06.472Z,16.28
2022-08-28T03:53:06.434Z,16.25
2022-08-28T03:55:06.425Z,16.25
2022-08-28T03:57:00.903Z,16.24
2022-08-28T03:59:00.895Z,16.32
2022-08-28T04:01:00.914Z,16.35
2022-08-28T04:03:00.944Z,16.39
2022-08-28T04:05:00.879Z,16.28
2022-08-28T04:07:00.897Z,16.52
2022-08-28T04:09:00.884Z,16.64
2022-08-28T04:12:17.293Z,16.8
2022-08-28T04:14:17.288Z,16.84
2022-08-28T04:16:17.329Z,16.85
2022-08-28T04:18:17.321Z,16.95
2022-08-28T04:20:17.275Z,17.34
2022-08-28T04:22:17.319Z,17.6
2022-08-28T04:24:17.277Z,18
2022-08-28T04:26:42.521Z,17.79
2022-08-28T04:28:42.515Z,18.21
2022-08-28T04:30:42.553Z,18.44
2022-08-28T04:32:42.525Z,18.54
2022-08-28T04:34:42.504Z,18.68
2022-08-28T04:36:42.511Z,19.13
2022-08-28T04:38:44.015Z,19.18
2022-08-28T04:41:39.525Z,20.71
2022-08-28T04:43:39.519Z,21.91
2022-08-28T04:45:39.588Z,22.37
2022-08-28T04:47:39.522Z,22.55
2022-08-28T04:49:39.611Z,21.83
2022-08-28T04:51:42.092Z,22.7
2022-08-28T04:53:39.498Z,23.66
2022-08-28T04:55:48.458Z,24.39
2022-08-28T04:57:25.325Z,25.12
2022-08-28T04:59:25.313Z,25.33
2022-08-28T05:01:25.408Z,24.59
2022-08-28T05:03:25.356Z,24.93
2022-08-28T05:05:25.337Z,26.28
2022-08-28T05:07:25.357Z,27.02
2022-08-28T05:09:25.310Z,27.5
2022-08-28T05:12:26.373Z,28.01
2022-08-28T05:14:26.329Z,28.02
2022-08-28T05:16:26.375Z,27.5
2022-08-28T05:18:26.384Z,26.2
2022-08-28T05:20:26.324Z,25.42
2022-08-28T05:22:26.330Z,24.98
2022-08-28T05:24:26.367Z,24.64
2022-08-28T05:27:39.585Z,23.9
2022-08-28T05:29:39.589Z,23.23
2022-08-28T05:31:39.579Z,23.08
2022-08-28T05:33:39.539Z,23.19
2022-08-28T05:35:39.536Z,23.08
2022-08-28T05:37:39.528Z,23.11
2022-08-28T05:39:39.552Z,23.04
2022-08-28T05:42:51.459Z,22.76
2022-08-28T05:44:54.658Z,22.55
2022-08-28T05:46:51.457Z,22.15
2022-08-28T05:48:51.452Z,22.42
2022-08-28T05:50:51.409Z,22.39
2022-08-28T05:52:51.467Z,22.29
2022-08-28T05:54:51.399Z,22.41
2022-08-28T05:57:37.877Z,21.95
2022-08-28T05:59:37.928Z,22.06
2022-08-28T06:01:37.898Z,22.48
2022-08-28T06:03:37.925Z,22.64
2022-08-28T06:05:37.869Z,22.44
2022-08-28T06:07:38.000Z,22.44
2022-08-28T06:09:37.951Z,22.52
2022-08-28T06:11:37.857Z,22.44
2022-08-28T06:12:50.038Z,22.09
2022-08-28T06:14:50.021Z,22.3
2022-08-28T06:16:49.988Z,22.51
2022-08-28T06:18:50.030Z,22.3
2022-08-28T06:20:50.027Z,22.34
2022-08-28T06:22:50.027Z,22.38
2022-08-28T06:24:50.042Z,22.37
2022-08-28T06:26:50.055Z,22.55
2022-08-28T06:28:44.430Z,22.59
2022-08-28T06:30:57.447Z,22.63
2022-08-28T06:32:44.435Z,22.87
2022-08-28T06:34:44.459Z,23.13
2022-08-28T06:36:44.511Z,23.06
2022-08-28T06:38:44.412Z,22.87
2022-08-28T06:40:44.443Z,22.79
2022-08-28T06:44:01.008Z,22.89
2022-08-28T06:46:01.009Z,23.17
2022-08-28T06:48:01.009Z,23.23
2022-08-28T06:50:00.962Z,23.03
2022-08-28T06:52:00.989Z,23.5
2022-08-28T06:54:01.009Z,23.72
2022-08-28T06:56:00.965Z,23.82
2022-08-28T06:59:08.929Z,23.95
2022-08-28T07:01:08.962Z,23.79
2022-08-28T07:03:08.930Z,24.2
2022-08-28T07:05:08.892Z,23.95
2022-08-28T07:07:08.893Z,23.81
2022-08-28T07:09:08.939Z,24.18
2022-08-28T07:11:08.883Z,24.43
2022-08-28T07:13:33.746Z,23.79
2022-08-28T07:15:30.715Z,24.1
2022-08-28T07:17:30.660Z,23.83
2022-08-28T07:19:30.693Z,23.74
2022-08-28T07:21:30.657Z,23.87
2022-08-28T07:23:30.700Z,24.24
2022-08-28T07:25:30.691Z,24.13
2022-08-28T07:27:30.704Z,24.25
2022-08-28T07:29:10.618Z,24.62
2022-08-28T07:31:00.157Z,24.92
2022-08-28T07:33:00.094Z,25.11
2022-08-28T07:35:00.103Z,25.55
2022-08-28T07:37:00.084Z,25.34
2022-08-28T07:39:00.075Z,25.04
2022-08-28T07:41:00.126Z,25.48
2022-08-28T07:43:51.820Z,25.41
2022-08-28T07:45:51.839Z,25.58
2022-08-28T07:47:51.789Z,25.94
2022-08-28T07:49:51.787Z,25.01
2022-08-28T07:51:53.897Z,25.37
2022-08-28T07:53:51.890Z,25.01
2022-08-28T07:55:51.782Z,25.27
2022-08-28T07:57:51.769Z,25.58
2022-08-28T07:59:55.272Z,25.78
2022-08-28T08:01:55.318Z,25.64
2022-08-28T08:03:55.884Z,25.65
2022-08-28T08:05:55.322Z,26.1
2022-08-28T08:07:55.279Z,26.21
2022-08-28T08:09:55.316Z,26.53
2022-08-28T08:11:55.294Z,26.74
2022-08-28T08:14:45.824Z,26.9
2022-08-28T08:16:45.839Z,26.89
2022-08-28T08:18:45.792Z,26.78
2022-08-28T08:20:45.788Z,26.98
2022-08-28T08:22:45.816Z,26.91
2022-08-28T08:24:45.799Z,27.52
2022-08-28T08:26:46.938Z,27.51
2022-08-28T08:29:44.210Z,27.62
2022-08-28T08:31:44.216Z,27.42
2022-08-28T08:33:44.168Z,27.42
2022-08-28T08:35:44.171Z,27.7
2022-08-28T08:37:44.221Z,27.75
2022-08-28T08:39:44.228Z,27.66
2022-08-28T08:41:44.171Z,27.95
2022-08-28T08:45:12.205Z,28.71
2022-08-28T08:47:14.719Z,28.63
2022-08-28T08:49:12.170Z,28.45
2022-08-28T08:51:12.185Z,28.68
2022-08-28T08:53:12.202Z,28.66
2022-08-28T08:55:12.190Z,28.64
2022-08-28T08:57:12.179Z,28.98
2022-08-28T09:00:24.577Z,29.14
2022-08-28T09:02:28.529Z,29.63
2022-08-28T09:04:24.629Z,28.76
2022-08-28T09:06:24.573Z,28.53
2022-08-28T09:08:24.587Z,28.74
2022-08-28T09:10:24.820Z,29.22
2022-08-28T09:12:24.609Z,29.37
2022-08-28T09:14:50.049Z,29.62
2022-08-28T09:16:50.039Z,29.78
2022-08-28T09:18:50.048Z,30.33
2022-08-28T09:20:50.040Z,30.22
2022-08-28T09:22:50.115Z,30.39
2022-08-28T09:24:50.368Z,30.79
2022-08-28T09:26:50.085Z,30.58
2022-08-28T09:28:50.096Z,30.68
2022-08-28T09:30:14.273Z,31.07
2022-08-28T09:32:14.260Z,31.15
2022-08-28T09:34:14.333Z,31.34
2022-08-28T09:36:14.272Z,31.35
2022-08-28T09:38:14.531Z,31.15
2022-08-28T09:40:14.331Z,31.25
2022-08-28T09:42:14.257Z,31.45
2022-08-28T09:45:53.215Z,31.61
2022-08-28T09:47:53.249Z,30.82
2022-08-28T09:49:53.292Z,31.09
2022-08-28T09:51:53.196Z,31.21
2022-08-28T09:53:53.232Z,31.11
2022-08-28T09:55:53.206Z,31.29
2022-08-28T09:57:53.194Z,31.73
2022-08-28T10:00:46.445Z,32.12
2022-08-28T10:02:46.426Z,32.4
2022-08-28T10:04:46.481Z,31.8
2022-08-28T10:06:46.415Z,31.9
2022-08-28T10:08:46.465Z,32.11
2022-08-28T10:10:46.434Z,32.17
2022-08-28T10:12:46.425Z,32.41
2022-08-28T10:15:33.467Z,32.87
2022-08-28T10:17:33.399Z,32.46
2022-08-28T10:19:33.400Z,32.53
2022-08-28T10:21:33.396Z,32.37
2022-08-28T10:23:33.399Z,32.46
2022-08-28T10:25:33.481Z,32.22
2022-08-28T10:27:33.416Z,32.25
2022-08-28T10:29:33.406Z,32.22
2022-08-28T10:31:05.494Z,32.42
2022-08-28T10:33:05.435Z,32.55
2022-08-28T10:35:05.464Z,32.98
2022-08-28T10:37:05.451Z,32.6
2022-08-28T10:39:05.645Z,32.26
2022-08-28T10:41:05.417Z,32.4
2022-08-28T10:43:05.452Z,32.11
2022-08-28T10:46:35.579Z,32.45
2022-08-28T10:48:35.541Z,32.32
2022-08-28T10:50:35.486Z,31.99
2022-08-28T10:52:35.494Z,32.28
2022-08-28T10:54:35.499Z,32.76
2022-08-28T10:56:35.507Z,32.92
2022-08-28T10:58:35.478Z,32.79
2022-08-28T11:01:22.361Z,32.86
2022-08-28T11:03:33.802Z,32.53
2022-08-28T11:05:22.359Z,32.35
2022-08-28T11:07:22.317Z,32.72
2022-08-28T11:09:22.320Z,32.79
2022-08-28T11:11:22.374Z,32.99
2022-08-28T11:13:22.308Z,32.93
2022-08-28T11:16:09.136Z,33.29
2022-08-28T11:18:09.119Z,33.36
2022-08-28T11:20:09.133Z,33.37
2022-08-28T11:22:09.165Z,33.09
2022-08-28T11:24:09.133Z,33.39
2022-08-28T11:26:09.148Z,33.51
2022-08-28T11:28:09.123Z,33.38
2022-08-28T11:30:09.134Z,33.27
2022-08-28T11:31:31.875Z,33.12
2022-08-28T11:33:31.765Z,33.16
2022-08-28T11:35:31.831Z,32.32
2022-08-28T11:37:31.802Z,32.58
2022-08-28T11:39:31.765Z,32.9
2022-08-28T11:41:31.812Z,32.67
2022-08-28T11:43:31.818Z,32.85
2022-08-28T11:46:55.387Z,32.26
2022-08-28T11:48:55.388Z,31.79
2022-08-28T11:50:55.343Z,31.96
2022-08-28T11:52:55.358Z,31.98
2022-08-28T11:54:55.333Z,32.01
2022-08-28T11:56:55.387Z,32.06
2022-08-28T11:58:55.335Z,32.45
2022-08-28T12:02:25.953Z,32.23
2022-08-28T12:04:25.876Z,32.29
2022-08-28T12:06:25.880Z,31.92
2022-08-28T12:08:25.850Z,32.4
2022-08-28T12:10:27.756Z,32.37
2022-08-28T12:12:25.880Z,32.56
2022-08-28T12:14:25.843Z,32.42
2022-08-28T12:16:45.460Z,32.24
2022-08-28T12:18:44.995Z,32.04
2022-08-28T12:20:44.968Z,31.91
2022-08-28T12:22:44.969Z,31.82
2022-08-28T12:24:44.955Z,31.69
2022-08-28T12:26:44.979Z,31.62
2022-08-28T12:28:44.992Z,31.22
2022-08-28T12:30:45.003Z,30.82
2022-08-28T12:31:52.843Z,30.89
2022-08-28T12:33:52.837Z,31.15
2022-08-28T12:35:52.831Z,31.23
2022-08-28T12:37:53.384Z,31.43
2022-08-28T12:39:52.896Z,31.81
2022-08-28T12:41:52.827Z,31.99
2022-08-28T12:43:52.833Z,32.29
2022-08-28T12:45:52.971Z,32.28
2022-08-28T12:47:37.439Z,32.23
2022-08-28T12:49:37.383Z,32.17
2022-08-28T12:51:37.382Z,31.68
2022-08-28T12:53:37.420Z,31.46
2022-08-28T12:55:37.383Z,31.31
2022-08-28T12:57:37.393Z,31.8
2022-08-28T12:59:37.378Z,32.05
2022-08-28T13:03:01.985Z,31.85
2022-08-28T13:05:01.981Z,32.07
2022-08-28T13:07:01.979Z,31.92
2022-08-28T13:09:02.029Z,31.97
2022-08-28T13:11:01.967Z,31.84
2022-08-28T13:13:05.362Z,31.77
2022-08-28T13:15:02.166Z,32.25
2022-08-28T13:18:10.378Z,32.15
2022-08-28T13:20:10.585Z,32.12
2022-08-28T13:22:10.570Z,32.32
2022-08-28T13:24:10.239Z,32.02
2022-08-28T13:26:10.555Z,31.71
2022-08-28T13:28:10.450Z,31.77
2022-08-28T13:30:10.320Z,32.06
2022-08-28T13:33:17.388Z,32.26
2022-08-28T13:35:17.498Z,32.28
2022-08-28T13:37:20.099Z,32.12
2022-08-28T13:39:17.378Z,32.18
2022-08-28T13:41:17.454Z,32.11
2022-08-28T13:43:17.393Z,32
2022-08-28T13:45:17.396Z,32.07
2022-08-28T13:48:25.655Z,32.26
2022-08-28T13:50:25.695Z,32.01
2022-08-28T13:52:25.648Z,31.96
2022-08-28T13:54:25.636Z,31.82
2022-08-28T13:56:25.719Z,32.02
2022-08-28T13:58:25.639Z,32.18
2022-08-28T14:00:25.692Z,32.05
2022-08-28T14:03:11.091Z,32.22
2022-08-28T14:05:11.094Z,32.09
2022-08-28T14:07:11.136Z,32.09
2022-08-28T14:09:11.079Z,32.06
2022-08-28T14:11:12.563Z,32.06
2022-08-28T14:13:11.091Z,32.13
2022-08-28T14:15:11.077Z,32.13
2022-08-28T14:18:46.822Z,32.09
2022-08-28T14:20:46.812Z,32.01
2022-08-28T14:22:46.864Z,32
2022-08-28T14:24:46.834Z,32.02
2022-08-28T14:26:46.807Z,32
2022-08-28T14:28:46.862Z,31.8
2022-08-28T14:30:46.787Z,31.82
2022-08-28T14:33:21.165Z,31.79
2022-08-28T14:35:21.012Z,31.83
2022-08-28T14:37:21.068Z,31.41
2022-08-28T14:39:21.196Z,31.5
2022-08-28T14:41:21.023Z,31.53
2022-08-28T14:43:21.003Z,31.57
2022-08-28T14:45:21.026Z,31.59
2022-08-28T14:48:24.413Z,31.36
2022-08-28T14:50:24.475Z,31.41
2022-08-28T14:52:24.426Z,31.3
2022-08-28T14:54:24.412Z,31.01
2022-08-28T14:56:24.614Z,30.93
2022-08-28T14:58:24.427Z,30.81
2022-08-28T15:00:24.413Z,30.82
2022-08-28T15:02:24.394Z,30.71
2022-08-28T15:04:11.684Z,30.47
2022-08-28T15:06:11.572Z,30.34
2022-08-28T15:08:11.556Z,30.56
2022-08-28T15:10:11.561Z,30.44
2022-08-28T15:12:11.550Z,30.39
2022-08-28T15:14:11.591Z,30.34
2022-08-28T15:16:15.890Z,30.19
2022-08-28T15:19:04.592Z,30.06
2022-08-28T15:21:04.590Z,29.96
2022-08-28T15:23:04.598Z,29.96
2022-08-28T15:25:04.596Z,29.91
2022-08-28T15:27:04.611Z,29.88
2022-08-28T15:29:04.646Z,29.91
2022-08-28T15:31:04.577Z,29.92
2022-08-28T15:34:26.215Z,29.88
2022-08-28T15:36:26.176Z,29.71
2022-08-28T15:38:26.233Z,29.65
2022-08-28T15:40:26.182Z,29.52
2022-08-28T15:42:26.171Z,29.38
2022-08-28T15:44:26.222Z,29.02
2022-08-28T15:46:26.171Z,28.93
2022-08-28T15:49:22.289Z,28.88
2022-08-28T15:51:25.219Z,28.85
2022-08-28T15:53:21.103Z,28.83
2022-08-28T15:55:21.108Z,28.71
2022-08-28T15:57:21.125Z,28.68
2022-08-28T15:59:21.117Z,28.64
2022-08-28T16:01:21.206Z,28.66
2022-08-28T16:04:59.825Z,28.5
2022-08-28T16:07:00.507Z,28.43
2022-08-28T16:08:59.803Z,28.31
2022-08-28T16:10:59.870Z,28.21
2022-08-28T16:12:59.807Z,28.01
2022-08-28T16:14:59.805Z,28.06
2022-08-28T16:16:59.863Z,27.95
2022-08-28T16:19:33.552Z,27.86
2022-08-28T16:21:33.624Z,27.71
2022-08-28T16:23:33.548Z,27.64
2022-08-28T16:25:33.543Z,27.58
2022-08-28T16:27:33.549Z,27.5
2022-08-28T16:29:33.567Z,27.43
2022-08-28T16:31:33.631Z,27.3
2022-08-28T16:35:16.165Z,27.22
2022-08-28T16:37:19.525Z,27.08
2022-08-28T16:39:16.191Z,27
2022-08-28T16:41:16.154Z,26.9
2022-08-28T16:43:16.150Z,26.83
2022-08-28T16:45:16.190Z,26.7
2022-08-28T16:47:16.149Z,26.58
2022-08-28T16:50:27.617Z,26.39
2022-08-28T16:52:27.569Z,26.32
2022-08-28T16:54:27.647Z,26.21
2022-08-28T16:56:27.568Z,26.11
2022-08-28T16:58:27.578Z,26.01
2022-08-28T17:00:27.641Z,25.93
2022-08-28T17:02:27.586Z,25.81
2022-08-28T17:05:38.791Z,25.71
2022-08-28T17:07:38.759Z,25.59
2022-08-28T17:09:38.747Z,25.53
2022-08-28T17:11:38.846Z,25.49
2022-08-28T17:13:38.773Z,25.39
2022-08-28T17:15:38.746Z,25.31
2022-08-28T17:17:38.761Z,25.2
2022-08-28T17:20:45.210Z,25.09
2022-08-28T17:22:45.211Z,25.05
2022-08-28T17:24:45.198Z,25
2022-08-28T17:26:45.244Z,24.93
2022-08-28T17:28:45.210Z,24.88
2022-08-28T17:30:45.200Z,24.8
2022-08-28T17:32:45.243Z,24.74
2022-08-28T17:35:57.696Z,24.66
2022-08-28T17:37:57.660Z,24.62
2022-08-28T17:39:57.627Z,24.55
2022-08-28T17:41:57.612Z,24.47
2022-08-28T17:43:57.606Z,24.43
2022-08-28T17:45:57.623Z,24.35
2022-08-28T17:47:57.643Z,24.28
2022-08-28T17:51:20.891Z,24.23
2022-08-28T17:53:23.530Z,24.19
2022-08-28T17:55:20.868Z,24.1
2022-08-28T17:57:20.866Z,24.04
2022-08-28T17:59:21.923Z,23.98
2022-08-28T18:01:20.893Z,23.94
2022-08-28T18:03:20.879Z,23.93
2022-08-28T18:06:29.384Z,23.81
2022-08-28T18:08:29.289Z,23.83
2022-08-28T18:10:29.310Z,23.77
2022-08-28T18:12:29.383Z,23.67
2022-08-28T18:14:29.314Z,23.66
2022-08-28T18:16:31.575Z,23.6
2022-08-28T18:18:33.028Z,23.56
2022-08-28T18:22:04.940Z,23.39
2022-08-28T18:24:05.023Z,23.48
2022-08-28T18:26:04.930Z,23.42
2022-08-28T18:28:04.960Z,23.37
2022-08-28T18:30:04.961Z,23.35
2022-08-28T18:32:04.945Z,23.28
2022-08-28T18:34:04.919Z,23.24
2022-08-28T18:36:49.961Z,23.23
2022-08-28T18:38:49.967Z,23.2
2022-08-28T18:40:49.952Z,23.16
2022-08-28T18:42:49.997Z,23.12
2022-08-28T18:44:50.040Z,23.04
2022-08-28T18:46:49.994Z,23.04
2022-08-28T18:48:49.977Z,23.05
2022-08-28T18:51:27.686Z,22.98
2022-08-28T18:53:27.674Z,22.99
2022-08-28T18:55:27.679Z,22.88
2022-08-28T18:57:27.635Z,22.9
2022-08-28T18:59:27.605Z,22.71
2022-08-28T19:01:27.694Z,22.66
2022-08-28T19:03:27.629Z,22.77
2022-08-28T19:05:27.593Z,22.82
2022-08-28T19:06:42.244Z,22.76
2022-08-28T19:08:42.164Z,22.78
2022-08-28T19:10:42.132Z,22.73
2022-08-28T19:12:42.121Z,22.69
2022-08-28T19:14:42.164Z,22.7
2022-08-28T19:16:42.128Z,22.59
2022-08-28T19:18:42.113Z,22.53
2022-08-28T19:20:42.199Z,22.41
2022-08-28T19:22:46.662Z,22.4
2022-08-28T19:24:46.684Z,22.37
2022-08-28T19:26:46.760Z,22.31
2022-08-28T19:28:46.652Z,22.43
2022-08-28T19:30:46.745Z,22.45
2022-08-28T19:32:46.641Z,22.45
2022-08-28T19:34:46.643Z,22.26
2022-08-28T19:37:53.791Z,22.38
2022-08-28T19:39:56.364Z,22.35
2022-08-28T19:41:53.987Z,22.23
2022-08-28T19:43:53.770Z,22.21
2022-08-28T19:45:53.821Z,22.16
2022-08-28T19:47:53.799Z,22.2
2022-08-28T19:49:53.852Z,22.2
2022-08-28T19:52:36.073Z,22.08
2022-08-28T19:54:36.061Z,22.07
2022-08-28T19:56:36.041Z,22.13
2022-08-28T19:58:36.088Z,22.06
2022-08-28T20:00:36.031Z,22.02
2022-08-28T20:02:36.059Z,22.03
2022-08-28T20:04:36.104Z,21.99
2022-08-28T20:07:25.378Z,22.01
2022-08-28T20:09:25.409Z,21.91
2022-08-28T20:11:25.437Z,21.91
2022-08-28T20:13:25.371Z,21.94
2022-08-28T20:15:25.403Z,21.89
2022-08-28T20:17:25.375Z,21.85
2022-08-28T20:19:25.385Z,21.87
2022-08-28T20:21:28.875Z,21.71
2022-08-28T20:23:07.533Z,21.82
2022-08-28T20:25:07.513Z,21.85
2022-08-28T20:27:07.513Z,21.79
2022-08-28T20:29:07.575Z,21.68
2022-08-28T20:31:07.558Z,20.99
2022-08-28T20:33:07.563Z,21.04
2022-08-28T20:35:07.536Z,21.21
2022-08-28T20:38:44.379Z,21.31
2022-08-28T20:40:44.393Z,21.27
2022-08-28T20:42:44.386Z,21.23
2022-08-28T20:44:44.385Z,21.23
2022-08-28T20:46:44.360Z,21.24
2022-08-28T20:48:44.364Z,21.28
2022-08-28T20:50:44.364Z,21.22
2022-08-28T20:53:37.023Z,21.16
2022-08-28T20:55:35.340Z,21.26
2022-08-28T20:57:35.373Z,21.11
2022-08-28T20:59:39.404Z,21.11
2022-08-28T21:01:35.428Z,21.06
2022-08-28T21:03:35.327Z,21.02
2022-08-28T21:05:35.334Z,20.92
2022-08-28T21:08:45.877Z,21
2022-08-28T21:10:45.754Z,21
2022-08-28T21:12:45.745Z,21
2022-08-28T21:14:51.300Z,21.02
2022-08-28T21:16:45.870Z,20.99
2022-08-28T21:19:05.299Z,20.82
2022-08-28T21:20:45.770Z,20.97
2022-08-28T21:23:42.915Z,20.97
2022-08-28T21:25:42.890Z,20.87
2022-08-28T21:27:42.884Z,20.75
2022-08-28T21:29:42.934Z,20.7
2022-08-28T21:31:42.883Z,20.63
2022-08-28T21:33:42.896Z,20.8
2022-08-28T21:35:42.886Z,20.6
2022-08-28T21:38:31.279Z,20.63
2022-08-28T21:40:31.325Z,20.69
2022-08-28T21:42:31.247Z,20.61
2022-08-28T21:44:31.332Z,20.7
2022-08-28T21:46:31.374Z,20.69
2022-08-28T21:48:31.265Z,20.69
2022-08-28T21:50:31.311Z,20.62
2022-08-28T21:52:31.242Z,20.59
2022-08-28T21:54:20.929Z,20.47
2022-08-28T21:56:20.897Z,20.6
2022-08-28T21:58:21.297Z,20.53
2022-08-28T22:00:20.910Z,20.53
2022-08-28T22:02:20.934Z,20.48
2022-08-28T22:04:20.895Z,20.35
2022-08-28T22:06:20.888Z,20.37
2022-08-28T22:08:57.306Z,20.4
2022-08-28T22:10:57.328Z,20.38
2022-08-28T22:12:57.286Z,20.37
2022-08-28T22:14:57.293Z,20.32
2022-08-28T22:16:57.377Z,20.28
2022-08-28T22:18:57.279Z,20.26
2022-08-28T22:20:57.281Z,20.21
2022-08-28T22:24:23.538Z,20.26
2022-08-28T22:26:23.479Z,20.24
2022-08-28T22:28:23.520Z,20.28
2022-08-28T22:30:23.523Z,20.22
2022-08-28T22:32:23.523Z,20.21
2022-08-28T22:34:23.467Z,20.07
2022-08-28T22:36:23.474Z,20.08
2022-08-28T22:39:47.092Z,20.12
2022-08-28T22:41:47.091Z,20.04
2022-08-28T22:43:47.116Z,19.92
2022-08-28T22:45:47.128Z,19.88
2022-08-28T22:47:47.100Z,20.01
2022-08-28T22:49:47.059Z,19.98
2022-08-28T22:51:47.061Z,19.91
2022-08-28T22:54:38.243Z,19.91
2022-08-28T22:56:38.203Z,19.89
2022-08-28T22:58:38.227Z,19.82
2022-08-28T23:00:38.192Z,19.82
2022-08-28T23:02:38.288Z,19.79
2022-08-28T23:04:38.206Z,19.77
2022-08-28T23:06:38.199Z,19.78
2022-08-28T23:10:25.305Z,19.77
2022-08-28T23:12:19.962Z,19.74
2022-08-28T23:14:19.966Z,19.62
2022-08-28T23:16:20.010Z,19.67
2022-08-28T23:18:20.006Z,19.53
2022-08-28T23:20:19.996Z,19.57
2022-08-28T23:22:19.969Z,19.57
2022-08-28T23:24:43.304Z,19.59
2022-08-28T23:26:43.295Z,19.59
2022-08-28T23:28:43.367Z,19.55
2022-08-28T23:30:44.019Z,19.59
2022-08-28T23:32:43.277Z,19.6
2022-08-28T23:34:43.301Z,19.52
2022-08-28T23:36:43.470Z,19.32
2022-08-28T23:38:43.359Z,19.27
2022-08-28T23:40:24.049Z,19.23
2022-08-28T23:42:23.976Z,19.08
2022-08-28T23:44:23.969Z,19.18
2022-08-28T23:46:23.972Z,19.22
2022-08-28T23:48:23.971Z,19.23
2022-08-28T23:50:23.965Z,19.22
2022-08-28T23:52:23.962Z,19.27
2022-08-28T23:55:59.501Z,19.25
2022-08-28T23:57:58.334Z,19.29
2022-08-28T23:59:58.282Z,19.25
